Flight Track Log - Related Links

Times and Time Zones

All times are in EST time to prevent confusion due to time zone crossing. See the EJA142 flight status page for this flight to view local times or setup timezone preferences in your user account.

Time Position Orientation Groundspeed Altitude Reporting Facility
EST Latitude Longitude Course Direction KTS MPH feet Rate Location/Type
Fri 02:13:08 PM 42.6639 -83.4350 279° West 129 148 2,200  Level Cleveland Center
Fri 02:14:09 PM 42.6714 -83.5014 279° West 180 207 3,600 1,672 Climbing Cleveland Center
Fri 02:15:10 PM 42.7281 -83.5239 344° North 264 304 5,600 2,430 Climbing Cleveland Center
Fri 02:16:10 PM 42.7669 -83.4208 63° Northeast 326 375 8,500 3,024 Climbing Cleveland Center
Fri 02:21:31 PM 42.5847 -82.8262 63° Northeast 386 444 24,800 2,475 Climbing FlightAware ADS-B (EPLB / LUZ)
Fri 02:23:24 PM 42.4225 -82.5442 128° Southeast 448 516 26,400 1,244 Climbing FlightAware ADS-B (CYYZ)
Fri 02:24:15 PM 42.3680 -82.4206 121° Southeast 505 581 28,200 2,100 Climbing FlightAware ADS-B (CYYZ)
Fri 02:24:44 PM 42.3637 -82.3378 94° East 523 602 29,200 2,100 Climbing FlightAware ADS-B (CYYZ)
Fri 02:25:15 PM 42.3596 -82.2255 93° East 524 603 30,300 2,164 Climbing FlightAware ADS-B (CYYZ)
Fri 02:25:45 PM 42.3558 -82.1314 93° East 539 620 31,400 3,100 Climbing FlightAware ADS-B (CYYZ)
Fri 02:26:15 PM 42.3518 -82.0299 93° East 527 606 33,400 2,700 Climbing FlightAware ADS-B (CYYZ)
Fri 02:26:45 PM 42.3609 -81.9287 83° East 535 616 34,100 1,700 Climbing FlightAware ADS-B (CYYZ)
Fri 02:27:15 PM 42.3740 -81.8285 80° East 537 618 35,100 1,700 Climbing FlightAware ADS-B (CYYZ)
Fri 02:27:45 PM 42.3869 -81.7297 80° East 537 618 35,800 857 Climbing FlightAware ADS-B (CYYZ)
Fri 02:28:25 PM 42.4042 -81.5953 80° East 547 629 36,100 1,217 Climbing FlightAware ADS-B (CYYZ)
Fri 02:28:54 PM 42.4162 -81.5010 80° East 547 629 37,200 2,441 Climbing FlightAware ADS-B (CYYZ)
Fri 02:29:24 PM 42.4285 -81.4040 80° East 547 629 38,500 1,800 Climbing FlightAware ADS-B (CYYZ)
Fri 02:29:54 PM 42.4418 -81.2974 80° East 547 629 39,000 395 Climbing FlightAware ADS-B (CYYZ)
Fri 02:30:40 PM 42.4583 -81.1654 80° East 547 629 39,000  Level FlightAware ADS-B (CYYZ)
Fri 02:31:09 PM 42.4742 -81.0373 80° East 547 629 39,000  Level FlightAware ADS-B (CYYZ)
Fri 02:31:40 PM 42.4871 -80.9316 81° East 547 629 39,000  Level FlightAware ADS-B (CYYZ)
Fri 02:32:09 PM 42.4965 -80.8538 81° East 547 629 39,000  Level FlightAware ADS-B (CYYZ)
Fri 02:32:39 PM 42.5128 -80.7188 81° East 547 629 39,000  Level FlightAware ADS-B (CYYZ)
Fri 02:33:09 PM 42.5249 -80.6167 81° East 547 629 39,000  Level FlightAware ADS-B (CYYZ)
Fri 02:33:39 PM 42.5282 -80.5893 81° East 547 629 39,000  Level FlightAware ADS-B (CYYZ)
Fri 02:34:10 PM 42.5504 -80.4007 81° East 547 629 39,000  Level FlightAware ADS-B (CYYZ)
Fri 02:34:36 PM 42.5577 -80.3377 81° East 572 658 39,000  Level FlightAware ADS-B (EPLB / LUZ)
Fri 02:34:39 PM 42.5627 -80.2946 81° East 547 629 39,000 1,737 Level FlightAware ADS-B (CYYZ)
Fri 02:35:14 PM 42.5768 -80.1721 81° East 568 654 40,100 2,000 Climbing FlightAware ADS-B (CYYZ)
Fri 02:35:15 PM 42.5760 -80.1790 261° West 554 638 40,200 1,800 Climbing FlightAware ADS-B (EPLB / LUZ)
Fri 02:35:44 PM 42.5880 -80.0748 81° East 568 654 41,000 800 Climbing FlightAware ADS-B (CYYZ)
Fri 02:36:15 PM 42.6000 -79.9680 81° East 568 654 41,000  Level FlightAware ADS-B (CYYZ)
Fri 02:36:27 PM 42.5993 -79.9749 261° West 556 640 41,000  Level FlightAware ADS-B (EPLB / LUZ)
Fri 02:36:44 PM 42.6116 -79.8661 81° East 568 654 41,000  Level FlightAware ADS-B (CYYZ)
Fri 02:37:11 PM 42.6191 -79.7990 81° East 551 634 41,000  Level FlightAware ADS-B (EPLB / LUZ)
Fri 02:37:35 PM 42.6306 -79.6945 81° East 568 654 41,000  Level FlightAware ADS-B (CYYZ)
Fri 02:38:14 PM 42.6458 -79.5566 81° East 568 654 41,000  Level FlightAware ADS-B (CYYZ)
Fri 02:38:34 PM 42.6531 -79.4893 82° East 560 644 41,000  Level FlightAware ADS-B
Fri 02:39:10 PM 42.6665 -79.3651 82° East 568 654 41,000  Level FlightAware ADS-B (CYYZ)
Fri 02:39:16 PM 42.6632 -79.3963 262° West 561 646 41,000  Level FlightAware ADS-B (EPLB / LUZ)
Fri 02:39:39 PM 42.6776 -79.2613 82° East 568 654 41,000  Level FlightAware ADS-B (CYYZ)
Fri 02:39:46 PM 42.6800 -79.2390 82° East 562 647 41,000  Level FlightAware ADS-B
Fri 02:40:10 PM 42.6888 -79.1556 82° East 568 654 41,000  Level FlightAware ADS-B (CYYZ)
Fri 02:40:30 PM 42.6964 -79.0840 82° East 560 644 41,000  Level FlightAware ADS-B (EPLB / LUZ)
Fri 02:40:39 PM 42.6998 -79.0514 82° East 568 654 41,000  Level FlightAware ADS-B (CYYZ)
Fri 02:41:09 PM 42.7104 -78.9492 82° East 568 654 41,000  Level FlightAware ADS-B (CYYZ)
Fri 02:41:12 PM 42.7110 -78.9437 82° East 560 644 41,000  Level FlightAware ADS-B (EPLB / LUZ)
Fri 02:41:40 PM 42.7212 -78.8444 82° East 568 654 41,000  Level FlightAware ADS-B (CYYZ)
Fri 02:42:08 PM 42.7260 -78.7985 82° East 559 643 41,000  Level FlightAware ADS-B (EPLB / LUZ)
Fri 02:42:10 PM 42.7315 -78.7442 82° East 568 654 41,000  Level FlightAware ADS-B (CYYZ)
Fri 02:42:40 PM 42.7426 -78.6349 82° East 568 654 41,000  Level FlightAware ADS-B (CYYZ)
Fri 02:43:10 PM 42.7530 -78.5320 82° East 568 654 41,000  Level FlightAware ADS-B (CYYZ)
Fri 02:43:40 PM 42.7632 -78.4286 82° East 568 654 41,000  Level FlightAware ADS-B (CYYZ)
Fri 02:44:09 PM 42.7732 -78.3275 82° East 568 654 41,000  Level FlightAware ADS-B (CYYZ)
Fri 02:44:30 PM 42.7786 -78.2720 82° East 556 640 41,000  Level FlightAware ADS-B (EPLB / LUZ)
Fri 02:44:39 PM 42.7831 -78.2251 82° East 568 654 41,000  Level FlightAware ADS-B (CYYZ)
Fri 02:45:14 PM 42.7950 -78.1030 82° East 568 654 41,000  Level FlightAware ADS-B (CYYZ)
Fri 02:45:27 PM 42.7952 -78.1002 83° East 553 636 41,000  Level FlightAware ADS-B (EPLB / LUZ)
Fri 02:45:44 PM 42.8008 -78.0422 83° East 568 654 41,000  Level FlightAware ADS-B (CYYZ)
Fri 02:46:07 PM 42.8114 -77.9299 83° East 558 642 41,000  Level FlightAware ADS-B (EPLB / LUZ)
Fri 02:46:14 PM 42.8146 -77.8958 83° East 568 654 41,000  Level FlightAware ADS-B (CYYZ)
Fri 02:46:37 PM 42.8166 -77.8756 83° East 560 644 41,000  Level FlightAware ADS-B (EPLB / LUZ)
Fri 02:46:45 PM 42.8244 -77.7913 83° East 568 654 41,000  Level FlightAware ADS-B (CYYZ)
Fri 02:47:15 PM 42.8345 -77.6833 83° East 568 654 41,000  Level FlightAware ADS-B (CYYZ)
Fri 02:47:44 PM 42.8441 -77.5791 83° East 568 654 41,000  Level FlightAware ADS-B (CYYZ)
Fri 02:48:12 PM 42.8508 -77.5020 83° East 562 647 41,000  Level FlightAware ADS-B (EPLB / LUZ)
Fri 02:48:14 PM 42.8518 -77.4914 83° East 563 648 41,000  Level FlightAware ADS-B (CYYZ)
Fri 02:48:49 PM 42.8637 -77.4202 77° East 574 661 41,000  Level FlightAware ADS-B (CYYZ)
Fri 02:49:01 PM 42.8753 -77.3765 70° East 577 664 41,000  Level FlightAware ADS-B (EPLB / LUZ)
Fri 02:49:19 PM 42.9298 -77.2720 55° Northeast 579 666 41,000  Level FlightAware ADS-B (CYYZ)
Fri 02:49:49 PM 42.8753 -77.3765 235° Southwest 576 663 41,000  Level FlightAware ADS-B
Fri 02:49:54 PM 42.9907 -77.2005 48° Northeast 577 664 41,000  Level FlightAware ADS-B (CYYZ)
Fri 02:50:30 PM 43.0742 -77.1038 40° Northeast 582 670 41,000  Level FlightAware ADS-B (CYYZ)
Fri 02:50:59 PM 43.1184 -77.0526 40° Northeast 580 667 41,000  Level FlightAware ADS-B (CYYZ)
Fri 02:51:29 PM 43.1912 -76.9677 40° Northeast 580 667 41,000  Level FlightAware ADS-B (CYYZ)
Fri 02:51:48 PM 43.2336 -76.9182 40° Northeast 580 667 41,000  Level FlightAware ADS-B
Fri 02:51:54 PM 43.2083 -76.9477 220° Southwest 580 667 41,000  Level FlightAware ADS-B (CYYZ)
Fri 02:52:31 PM 43.3081 -76.8310 40° Northeast 574 661 41,000  Level FlightAware ADS-B
Fri 02:53:35 PM 43.4451 -76.6699 40° Northeast 579 666 41,000  Level FlightAware ADS-B
Fri 02:54:05 PM 43.4799 -76.6289 41° Northeast 575 662 41,000  Level FlightAware ADS-B
Fri 02:54:29 PM 43.5536 -76.5417 41° Northeast 568 654 41,000  Level FlightAware ADS-B (CYYZ)
Fri 02:54:37 PM 43.5656 -76.5276 41° Northeast 569 655 41,000 -316 Level FlightAware ADS-B
Fri 02:55:07 PM 43.6224 -76.4601 41° Northeast 580 667 40,800 -761 Descending FlightAware ADS-B
Fri 02:55:48 PM 43.7176 -76.3467 41° Northeast 587 676 40,100 -1,050 Descending FlightAware ADS-B
Fri 02:56:27 PM 43.7991 -76.2491 41° Northeast 606 697 39,400 -943 Descending FlightAware ADS-B
Fri 02:56:58 PM 43.8536 -76.1836 41° Northeast 601 692 39,000 -1,320 Descending FlightAware ADS-B
Fri 02:57:17 PM 43.9030 -76.1240 41° Northeast 603 694 38,300 -2,270 Descending FlightAware ADS-B
Fri 02:57:35 PM 43.9375 -76.0836 40° Northeast 605 696 37,600 -2,743 Descending FlightAware ADS-B (EPGD / GDN)
Fri 02:57:52 PM 43.9830 -76.0380 36° Northeast 627 722 36,700 -800 Descending FlightAware ADS-B
Fri 02:58:05 PM 43.9575 -76.0625 215° Southwest 619 712 37,200 -2,746 Climbing FlightAware ADS-B (EPGD / GDN)
Fri 02:58:51 PM 44.1260 -75.9120 33° Northeast 608 700 34,000 -3,623 Descending FlightAware ADS-B
Fri 02:58:58 PM 44.1258 -75.9119 160° South 608 700 34,000 -2,591 Level FlightAware ADS-B
Fri 02:59:35 PM 44.2256 -75.8231 32° Northeast 593 682 32,100 -2,917 Descending FlightAware ADS-B (EPGD / GDN)
Fri 03:00:10 PM 44.3101 -75.7478 33° Northeast 581 669 30,500 -2,451 Descending FlightAware ADS-B
Fri 03:00:46 PM 44.2965 -75.7599 213° Southwest 572 658 29,200 -1,613 Descending FlightAware ADS-B (CYGK)
Fri 03:01:43 PM 44.4997 -75.5551 36° Northeast 552 635 28,000 -809 Descending FlightAware ADS-B
Fri 03:02:15 PM 44.5123 -75.5355 48° Northeast 551 634 28,000 -610 Level FlightAware ADS-B (CYGK)
Fri 03:03:41 PM 44.6845 -75.2620 48° Northeast 539 620 26,800 -1,077 Descending FlightAware ADS-B
Fri 03:04:12 PM 44.7193 -75.2065 49° Northeast 527 606 25,900 -1,784 Descending FlightAware ADS-B
Fri 03:04:18 PM 44.7610 -75.1400 49° Northeast 524 603 25,700 -2,229 Descending FlightAware ADS-B
Fri 03:04:47 PM 44.8080 -75.0640 49° Northeast 508 585 24,600 -2,053 Descending FlightAware ADS-B
Fri 03:04:56 PM 44.8184 -75.0475 49° Northeast 499 574 24,400 -2,400 Descending FlightAware ADS-B
Fri 03:05:17 PM 44.8530 -74.9910 49° Northeast 496 571 23,400 -2,647 Descending FlightAware ADS-B
Fri 03:05:30 PM 44.8724 -74.9603 48° Northeast 495 570 22,900 -2,500 Descending FlightAware ADS-B
Fri 03:05:53 PM 44.9070 -74.9050 49° Northeast 490 564 21,900 -2,571 Descending FlightAware ADS-B
Fri 03:06:12 PM 44.9280 -74.8704 49° Northeast 479 551 21,100 -2,500 Descending FlightAware ADS-B
Fri 03:06:29 PM 44.9590 -74.8200 49° Northeast 470 541 20,400 -2,400 Descending FlightAware ADS-B
Fri 03:06:42 PM 44.9752 -74.7938 49° Northeast 463 533 19,900 -2,500 Descending FlightAware ADS-B
Fri 03:07:05 PM 45.0100 -74.7380 49° Northeast 452 520 18,900 -2,512 Descending FlightAware ADS-B
Fri 03:07:25 PM 45.0332 -74.6995 50° Northeast 446 513 18,100 -2,516 Descending FlightAware ADS-B
Fri 03:07:36 PM 45.0510 -74.6710 49° Northeast 443 510 17,600 -2,550 Descending FlightAware ADS-B
Fri 03:08:05 PM 45.0847 -74.6154 49° Northeast 426 490 16,400 -2,500 Descending FlightAware ADS-B
Fri 03:08:12 PM 45.0980 -74.5940 49° Northeast 425 489 16,100 -2,400 Descending FlightAware ADS-B
Fri 03:08:45 PM 45.1352 -74.5326 49° Northeast 441 507 14,800 -2,229 Descending FlightAware ADS-B
Fri 03:08:47 PM 45.1430 -74.5200 49° Northeast 443 510 14,800 -2,000 Level FlightAware ADS-B
Fri 03:09:15 PM 45.1754 -74.4668 49° Northeast 440 506 13,800 -1,946 Descending FlightAware ADS-B
Fri 03:09:24 PM 45.1870 -74.4480 49° Northeast 436 502 13,600 -2,000 Descending FlightAware ADS-B
Fri 03:09:45 PM 45.2167 -74.3896 54° Northeast 419 482 12,800 -2,057 Descending FlightAware ADS-B
Fri 03:09:59 PM 45.2310 -74.3570 58° Northeast 410 472 12,400 -2,000 Descending FlightAware ADS-B
Fri 03:10:24 PM 45.2547 -74.3031 58° Northeast 393 452 11,500 -2,000 Descending FlightAware ADS-B
Fri 03:10:29 PM 45.2590 -74.2930 59° Northeast 391 450 11,400 -1,800 Descending FlightAware ADS-B
Fri 03:10:54 PM 45.2817 -74.2405 58° Northeast 372 428 10,600 -1,622 Descending FlightAware ADS-B
Fri 03:11:06 PM 45.2930 -74.2130 60° Northeast 364 419 10,400 -1,400 Descending FlightAware ADS-B
Fri 03:11:24 PM 45.3080 -74.1790 58° Northeast 352 405 9,900 -1,579 Descending FlightAware ADS-B
Fri 03:11:25 PM 45.3098 -74.1751 56° Northeast 350 403 9,900 -1,412 Level FlightAware ADS-B
Fri 03:11:41 PM 45.3230 -74.1450 58° Northeast 338 389 9,500 -1,263 Descending FlightAware ADS-B
Fri 03:11:44 PM 45.3225 -74.1456 220° Southwest 335 386 9,500 -1,000 Level FlightAware ADS-B
Fri 03:11:59 PM 45.3380 -74.1100 58° Northeast 330 380 9,200 -1,231 Descending FlightAware ADS-B
Fri 03:12:23 PM 45.3523 -74.0766 59° Northeast 317 365 8,700 -1,200 Descending FlightAware ADS-B
Fri 03:12:24 PM 45.3570 -74.0670 55° Northeast 319 367 8,700 -1,500 Level FlightAware ADS-B
Fri 03:12:35 PM 45.3680 -74.0480 51° Northeast 318 366 8,400 -800 Descending FlightAware ADS-B
Fri 03:12:54 PM 45.3870 -74.0230 43° Northeast 314 361 8,300 -286 Descending FlightAware ADS-B
Fri 03:12:56 PM 45.3896 -74.0197 41° Northeast 314 361 8,300  Level FlightAware ADS-B
Fri 03:13:11 PM 45.4070 -73.9970 43° Northeast 312 359 8,300  Level FlightAware ADS-B
Fri 03:13:30 PM 45.4250 -73.9730 43° Northeast 312 359 8,300  Level FlightAware ADS-B
Fri 03:13:37 PM 45.4340 -73.9617 42° Northeast 312 359 8,300  Level FlightAware ADS-B
Fri 03:13:48 PM 45.4450 -73.9470 43° Northeast 314 361 8,300  Level FlightAware ADS-B
Fri 03:14:06 PM 45.4640 -73.9230 42° Northeast 314 361 8,300 -333 Level FlightAware ADS-B
Fri 03:14:24 PM 45.4820 -73.8980 44° Northeast 308 354 8,100 -857 Descending FlightAware ADS-B
Fri 03:14:41 PM 45.5010 -73.8740 42° Northeast 299 344 7,800 -1,000 Descending FlightAware ADS-B
Fri 03:15:00 PM 45.5190 -73.8500 43° Northeast 293 337 7,500 -973 Descending FlightAware ADS-B
Fri 03:15:18 PM 45.5370 -73.8270 42° Northeast 288 331 7,200 -1,000 Descending FlightAware ADS-B
Fri 03:15:36 PM 45.5550 -73.8040 42° Northeast 283 326 6,900 -1,000 Descending FlightAware ADS-B
Fri 03:15:54 PM 45.5710 -73.7820 44° Northeast 277 319 6,600 -1,200 Descending FlightAware ADS-B
Fri 03:16:11 PM 45.5880 -73.7600 42° Northeast 273 314 6,200 -1,371 Descending FlightAware ADS-B
Fri 03:16:29 PM 45.6040 -73.7400 41° Northeast 272 313 5,800 -1,286 Descending FlightAware ADS-B
Fri 03:16:53 PM 45.6270 -73.7090 43° Northeast 266 306 5,300 -1,256 Descending FlightAware ADS-B
Fri 03:17:12 PM 45.6430 -73.6880 43° Northeast 260 299 4,900 -857 Descending FlightAware ADS-B
Fri 03:17:35 PM 45.6600 -73.6570 52° Northeast 244 281 4,700 -732 Descending FlightAware ADS-B
Fri 03:17:53 PM 45.6710 -73.6330 57° Northeast 242 278 4,400 -1,000 Descending FlightAware ADS-B
Fri 03:17:59 PM 45.6750 -73.6250 54° Northeast 239 275 4,300 -923 Descending FlightAware ADS-B
Fri 03:18:06 PM 45.6750 -73.6240 90° East 234 269 4,200 -1,385 Descending FlightAware ADS-B
Fri 03:18:12 PM 45.6780 -73.6070 76° East 226 260 4,000 -2,182 Descending FlightAware ADS-B
Fri 03:18:17 PM 45.6770 -73.5990 100° East 216 249 3,800 -1,500 Descending FlightAware ADS-B
Fri 03:18:24 PM 45.6750 -73.5910 110° East 208 239 3,700 -1,250 Descending FlightAware ADS-B
Fri 03:18:41 PM 45.6660 -73.5710 123° Southeast 200 230 3,300 -667 Descending FlightAware ADS-B
Fri 03:19:00 PM 45.6580 -73.5520 121° Southeast 180 207 3,300  Level FlightAware ADS-B
Fri 03:19:11 PM 45.6520 -73.5410 128° Southeast 166 191 3,300  Level FlightAware ADS-B
Fri 03:19:18 PM 45.6480 -73.5390 161° South 148 170 3,300  Level FlightAware ADS-B
Fri 03:19:23 PM 45.6440 -73.5380 170° South 142 163 3,300  Level FlightAware ADS-B
Fri 03:19:30 PM 45.6400 -73.5380 180° South 136 157 3,300  Level FlightAware ADS-B
Fri 03:19:48 PM 45.6300 -73.5400 188° South 126 145 3,300  Level FlightAware ADS-B
Fri 03:20:05 PM 45.6190 -73.5420 187° South 127 146 3,300  Level FlightAware ADS-B
Fri 03:20:23 PM 45.6090 -73.5440 188° South 131 151 3,300  Level FlightAware ADS-B
Fri 03:20:41 PM 45.5980 -73.5470 191° South 129 148 3,300  Level FlightAware ADS-B
Fri 03:20:47 PM 45.5950 -73.5490 205° Southwest 125 144 3,300  Level FlightAware ADS-B
Fri 03:20:53 PM 45.5930 -73.5520 226° Southwest 126 145 3,300  Level FlightAware ADS-B
Fri 03:21:05 PM 45.5890 -73.5610 238° Southwest 127 146 3,300  Level FlightAware ADS-B
Fri 03:21:23 PM 45.5840 -73.5740 241° Southwest 127 146 3,300  Level FlightAware ADS-B
Fri 03:21:30 PM 45.5820 -73.5780 234° Southwest 126 145 3,300 -240 Level FlightAware ADS-B
Fri 03:21:48 PM 45.5740 -73.5880 221° Southwest 123 142 3,200 -514 Descending FlightAware ADS-B
Fri 03:22:05 PM 45.5670 -73.5980 225° Southwest 123 142 3,000 -857 Descending FlightAware ADS-B
Fri 03:22:23 PM 45.5590 -73.6080 221° Southwest 127 146 2,700 -811 Descending FlightAware ADS-B
Fri 03:22:42 PM 45.5510 -73.6180 221° Southwest 125 144 2,500 -667 Descending FlightAware ADS-B
Fri 03:22:59 PM 45.5440 -73.6280 225° Southwest 125 144 2,300 -686 Descending FlightAware ADS-B
Fri 03:23:17 PM 45.5360 -73.6380 221° Southwest 124 143 2,100 -698 Descending FlightAware ADS-B
Fri 03:23:42 PM 45.5270 -73.6500 223° Southwest 98 113 1,800 -571 Descending FlightAware ADS-B
Fri 03:23:59 PM 45.5220 -73.6570 224° Southwest 88 101 1,700 -514 Descending FlightAware ADS-B
Fri 03:24:17 PM 45.5180 -73.6630 226° Southwest 86 99 1,500 -500 Descending FlightAware ADS-B
Fri 03:24:35 PM 45.5120 -73.6700 219° Southwest 84 97 1,400 -333 Descending FlightAware ADS-B
Fri 03:24:53 PM 45.5070 -73.6770 224° Southwest 87 100 1,300 -486 Descending FlightAware ADS-B
Fri 03:25:12 PM 45.5020 -73.6840 224° Southwest 89 102 1,100 -500 Descending FlightAware ADS-B
Fri 03:25:29 PM 45.4970 -73.6890 215° Southwest 92 106 1,000 -514 Descending FlightAware ADS-B
Fri 03:25:47 PM 45.4900 -73.6990 225° Southwest 94 108 800 -529 Descending FlightAware ADS-B
Fri 03:26:03 PM 45.4850 -73.7050 220° Southwest 97 112 700 -571 Descending FlightAware ADS-B
Fri 03:26:50 PM 45.4667 -73.7167 220° Southwest 100 115 200 -638 Descending Montreal Center

Login

Don't have an account? Register now (free) for customized features, flight alerts, and more!